sensor_id;sensor_type;location;lat;lon;timestamp;P1;durP1;ratioP1;P2;durP2;ratioP2
22525;SDS011;11429;50.842;4.386;2023-06-05T00:01:46;5.65;;;3.17;;
22525;SDS011;11429;50.842;4.386;2023-06-05T00:04:11;5.82;;;3.30;;
22525;SDS011;11429;50.842;4.386;2023-06-05T00:06:37;5.28;;;3.03;;
22525;SDS011;11429;50.842;4.386;2023-06-05T00:09:03;7.20;;;3.42;;
22525;SDS011;11429;50.842;4.386;2023-06-05T00:11:29;7.18;;;3.33;;
22525;SDS011;11429;50.842;4.386;2023-06-05T00:13:56;6.15;;;3.30;;
22525;SDS011;11429;50.842;4.386;2023-06-05T00:16:21;10.00;;;3.65;;
22525;SDS011;11429;50.842;4.386;2023-06-05T00:18:47;6.72;;;3.03;;
22525;SDS011;11429;50.842;4.386;2023-06-05T00:21:13;5.30;;;2.97;;
22525;SDS011;11429;50.842;4.386;2023-06-05T00:23:40;9.05;;;3.38;;
22525;SDS011;11429;50.842;4.386;2023-06-05T00:26:06;7.40;;;3.00;;
22525;SDS011;11429;50.842;4.386;2023-06-05T00:28:32;4.88;;;3.22;;
22525;SDS011;11429;50.842;4.386;2023-06-05T00:30:58;8.57;;;4.13;;
22525;SDS011;11429;50.842;4.386;2023-06-05T00:33:25;6.05;;;3.25;;
22525;SDS011;11429;50.842;4.386;2023-06-05T00:35:52;8.73;;;3.35;;
22525;SDS011;11429;50.842;4.386;2023-06-05T00:38:18;6.57;;;3.70;;
22525;SDS011;11429;50.842;4.386;2023-06-05T00:40:43;7.15;;;3.42;;
22525;SDS011;11429;50.842;4.386;2023-06-05T00:43:09;8.57;;;3.20;;
22525;SDS011;11429;50.842;4.386;2023-06-05T00:45:35;7.43;;;3.42;;
22525;SDS011;11429;50.842;4.386;2023-06-05T00:48:00;8.73;;;3.47;;
22525;SDS011;11429;50.842;4.386;2023-06-05T00:53:05;6.53;;;3.30;;
22525;SDS011;11429;50.842;4.386;2023-06-05T00:55:32;8.15;;;3.53;;
22525;SDS011;11429;50.842;4.386;2023-06-05T00:57:58;10.45;;;4.07;;
22525;SDS011;11429;50.842;4.386;2023-06-05T01:00:26;10.02;;;3.60;;
22525;SDS011;11429;50.842;4.386;2023-06-05T01:02:52;5.95;;;3.72;;
22525;SDS011;11429;50.842;4.386;2023-06-05T01:05:18;5.93;;;3.42;;
22525;SDS011;11429;50.842;4.386;2023-06-05T01:07:44;6.60;;;3.90;;
22525;SDS011;11429;50.842;4.386;2023-06-05T01:10:12;8.50;;;3.38;;
22525;SDS011;11429;50.842;4.386;2023-06-05T01:15:29;6.88;;;3.65;;
22525;SDS011;11429;50.842;4.386;2023-06-05T01:17:57;5.45;;;3.33;;
22525;SDS011;11429;50.842;4.386;2023-06-05T01:20:23;6.47;;;3.83;;
22525;SDS011;11429;50.842;4.386;2023-06-05T01:23:10;5.78;;;3.33;;
22525;SDS011;11429;50.842;4.386;2023-06-05T01:25:36;8.48;;;3.65;;
22525;SDS011;11429;50.842;4.386;2023-06-05T01:33:54;6.80;;;3.55;;
22525;SDS011;11429;50.842;4.386;2023-06-05T01:36:28;7.78;;;3.65;;
22525;SDS011;11429;50.842;4.386;2023-06-05T01:38:55;7.35;;;3.47;;
22525;SDS011;11429;50.842;4.386;2023-06-05T01:41:23;7.60;;;4.22;;
22525;SDS011;11429;50.842;4.386;2023-06-05T01:43:51;7.55;;;3.92;;
22525;SDS011;11429;50.842;4.386;2023-06-05T01:46:18;9.82;;;3.88;;
22525;SDS011;11429;50.842;4.386;2023-06-05T01:48:46;12.60;;;4.25;;
22525;SDS011;11429;50.842;4.386;2023-06-05T01:51:12;6.50;;;3.95;;
22525;SDS011;11429;50.842;4.386;2023-06-05T01:53:38;9.40;;;3.75;;
22525;SDS011;11429;50.842;4.386;2023-06-05T01:56:04;6.65;;;3.90;;
22525;SDS011;11429;50.842;4.386;2023-06-05T01:58:32;5.85;;;3.67;;
22525;SDS011;11429;50.842;4.386;2023-06-05T02:00:57;6.93;;;4.38;;
22525;SDS011;11429;50.842;4.386;2023-06-05T02:03:23;8.68;;;3.78;;
22525;SDS011;11429;50.842;4.386;2023-06-05T02:05:49;9.63;;;4.30;;
22525;SDS011;11429;50.842;4.386;2023-06-05T02:08:16;6.50;;;3.88;;
22525;SDS011;11429;50.842;4.386;2023-06-05T02:10:48;7.72;;;4.03;;
22525;SDS011;11429;50.842;4.386;2023-06-05T02:13:14;8.25;;;4.25;;
22525;SDS011;11429;50.842;4.386;2023-06-05T02:15:44;7.78;;;4.25;;
22525;SDS011;11429;50.842;4.386;2023-06-05T02:18:10;6.47;;;3.78;;
22525;SDS011;11429;50.842;4.386;2023-06-05T02:20:38;7.85;;;4.10;;
22525;SDS011;11429;50.842;4.386;2023-06-05T02:23:05;8.75;;;5.03;;
22525;SDS011;11429;50.842;4.386;2023-06-05T02:25:31;8.77;;;4.25;;
22525;SDS011;11429;50.842;4.386;2023-06-05T02:27:57;6.78;;;4.00;;
22525;SDS011;11429;50.842;4.386;2023-06-05T02:30:23;9.13;;;4.00;;
22525;SDS011;11429;50.842;4.386;2023-06-05T02:32:49;10.85;;;4.60;;
22525;SDS011;11429;50.842;4.386;2023-06-05T02:35:21;7.63;;;4.30;;
22525;SDS011;11429;50.842;4.386;2023-06-05T02:37:47;7.70;;;4.60;;
22525;SDS011;11429;50.842;4.386;2023-06-05T02:40:13;6.95;;;4.28;;
22525;SDS011;11429;50.842;4.386;2023-06-05T02:42:39;6.68;;;4.40;;
22525;SDS011;11429;50.842;4.386;2023-06-05T02:45:05;8.70;;;3.92;;
22525;SDS011;11429;50.842;4.386;2023-06-05T02:47:32;9.05;;;4.82;;
22525;SDS011;11429;50.842;4.386;2023-06-05T02:49:58;10.00;;;4.70;;
22525;SDS011;11429;50.842;4.386;2023-06-05T02:52:24;8.50;;;4.80;;
22525;SDS011;11429;50.842;4.386;2023-06-05T02:54:51;9.07;;;4.72;;
22525;SDS011;11429;50.842;4.386;2023-06-05T02:57:16;9.50;;;5.15;;
22525;SDS011;11429;50.842;4.386;2023-06-05T02:59:43;10.80;;;4.32;;
22525;SDS011;11429;50.842;4.386;2023-06-05T03:02:09;7.15;;;5.35;;
22525;SDS011;11429;50.842;4.386;2023-06-05T03:04:36;7.05;;;4.70;;
22525;SDS011;11429;50.842;4.386;2023-06-05T03:07:06;9.68;;;4.78;;
22525;SDS011;11429;50.842;4.386;2023-06-05T03:09:33;8.10;;;4.53;;
22525;SDS011;11429;50.842;4.386;2023-06-05T03:11:59;6.75;;;4.50;;
22525;SDS011;11429;50.842;4.386;2023-06-05T03:14:25;8.32;;;4.85;;
22525;SDS011;11429;50.842;4.386;2023-06-05T03:16:51;8.82;;;5.35;;
22525;SDS011;11429;50.842;4.386;2023-06-05T03:19:18;6.20;;;4.20;;
22525;SDS011;11429;50.842;4.386;2023-06-05T03:21:44;9.10;;;5.35;;
22525;SDS011;11429;50.842;4.386;2023-06-05T03:24:11;10.93;;;5.25;;
22525;SDS011;11429;50.842;4.386;2023-06-05T03:26:39;8.75;;;5.18;;
22525;SDS011;11429;50.842;4.386;2023-06-05T03:29:06;10.40;;;5.20;;
22525;SDS011;11429;50.842;4.386;2023-06-05T03:31:32;7.85;;;5.07;;
22525;SDS011;11429;50.842;4.386;2023-06-05T03:33:58;7.32;;;5.10;;
22525;SDS011;11429;50.842;4.386;2023-06-05T03:36:25;7.57;;;4.95;;
22525;SDS011;11429;50.842;4.386;2023-06-05T03:38:52;8.55;;;4.75;;
22525;SDS011;11429;50.842;4.386;2023-06-05T03:41:18;7.60;;;4.97;;
22525;SDS011;11429;50.842;4.386;2023-06-05T03:43:45;7.65;;;4.85;;
22525;SDS011;11429;50.842;4.386;2023-06-05T03:46:11;7.32;;;5.40;;
22525;SDS011;11429;50.842;4.386;2023-06-05T03:48:43;9.80;;;5.15;;
22525;SDS011;11429;50.842;4.386;2023-06-05T03:51:08;8.85;;;5.05;;
22525;SDS011;11429;50.842;4.386;2023-06-05T03:53:34;10.15;;;4.78;;
22525;SDS011;11429;50.842;4.386;2023-06-05T03:56:07;9.98;;;5.05;;
22525;SDS011;11429;50.842;4.386;2023-06-05T03:58:34;7.95;;;4.88;;
22525;SDS011;11429;50.842;4.386;2023-06-05T04:01:00;8.30;;;4.70;;
22525;SDS011;11429;50.842;4.386;2023-06-05T04:03:26;9.48;;;5.03;;
22525;SDS011;11429;50.842;4.386;2023-06-05T04:05:52;10.65;;;5.20;;
22525;SDS011;11429;50.842;4.386;2023-06-05T04:08:18;8.57;;;5.13;;
22525;SDS011;11429;50.842;4.386;2023-06-05T04:10:44;9.15;;;5.93;;
22525;SDS011;11429;50.842;4.386;2023-06-05T04:13:09;11.82;;;5.35;;
22525;SDS011;11429;50.842;4.386;2023-06-05T04:15:35;9.70;;;5.20;;
22525;SDS011;11429;50.842;4.386;2023-06-05T04:18:01;8.15;;;5.53;;
22525;SDS011;11429;50.842;4.386;2023-06-05T04:20:27;11.00;;;6.05;;
22525;SDS011;11429;50.842;4.386;2023-06-05T04:22:53;9.65;;;5.50;;
22525;SDS011;11429;50.842;4.386;2023-06-05T04:25:19;7.72;;;5.25;;
22525;SDS011;11429;50.842;4.386;2023-06-05T04:27:45;8.15;;;5.85;;
22525;SDS011;11429;50.842;4.386;2023-06-05T04:30:13;12.02;;;5.88;;
22525;SDS011;11429;50.842;4.386;2023-06-05T04:32:39;8.13;;;5.60;;
22525;SDS011;11429;50.842;4.386;2023-06-05T04:35:06;10.63;;;5.95;;
22525;SDS011;11429;50.842;4.386;2023-06-05T04:37:33;9.35;;;5.85;;
22525;SDS011;11429;50.842;4.386;2023-06-05T04:40:00;9.05;;;6.10;;
22525;SDS011;11429;50.842;4.386;2023-06-05T04:42:30;7.82;;;5.75;;
22525;SDS011;11429;50.842;4.386;2023-06-05T04:44:57;10.10;;;6.32;;
22525;SDS011;11429;50.842;4.386;2023-06-05T04:47:24;11.77;;;6.45;;
22525;SDS011;11429;50.842;4.386;2023-06-05T04:49:49;8.10;;;6.15;;
22525;SDS011;11429;50.842;4.386;2023-06-05T04:52:18;11.85;;;6.10;;
22525;SDS011;11429;50.842;4.386;2023-06-05T04:54:45;10.93;;;6.15;;
22525;SDS011;11429;50.842;4.386;2023-06-05T04:57:11;8.75;;;5.97;;
22525;SDS011;11429;50.842;4.386;2023-06-05T04:59:37;13.88;;;6.45;;
22525;SDS011;11429;50.842;4.386;2023-06-05T05:02:03;9.02;;;6.03;;
22525;SDS011;11429;50.842;4.386;2023-06-05T05:04:28;9.45;;;6.10;;
22525;SDS011;11429;50.842;4.386;2023-06-05T05:06:55;8.02;;;6.07;;
22525;SDS011;11429;50.842;4.386;2023-06-05T05:09:26;16.73;;;6.05;;
22525;SDS011;11429;50.842;4.386;2023-06-05T05:11:52;6.93;;;5.85;;
22525;SDS011;11429;50.842;4.386;2023-06-05T05:14:18;9.00;;;5.65;;
22525;SDS011;11429;50.842;4.386;2023-06-05T05:16:43;8.70;;;6.28;;
22525;SDS011;11429;50.842;4.386;2023-06-05T05:19:09;10.82;;;6.10;;
22525;SDS011;11429;50.842;4.386;2023-06-05T05:21:35;16.08;;;6.03;;
22525;SDS011;11429;50.842;4.386;2023-06-05T05:24:01;11.77;;;6.30;;
22525;SDS011;11429;50.842;4.386;2023-06-05T05:26:27;8.77;;;5.68;;
22525;SDS011;11429;50.842;4.386;2023-06-05T05:31:21;7.60;;;5.13;;
22525;SDS011;11429;50.842;4.386;2023-06-05T05:33:48;10.65;;;5.47;;
22525;SDS011;11429;50.842;4.386;2023-06-05T05:36:13;8.50;;;6.05;;
22525;SDS011;11429;50.842;4.386;2023-06-05T05:38:40;10.10;;;6.72;;
22525;SDS011;11429;50.842;4.386;2023-06-05T05:41:05;9.30;;;5.82;;
22525;SDS011;11429;50.842;4.386;2023-06-05T05:43:31;10.63;;;5.68;;
22525;SDS011;11429;50.842;4.386;2023-06-05T05:45:57;11.65;;;6.20;;
22525;SDS011;11429;50.842;4.386;2023-06-05T05:48:23;10.52;;;5.80;;
22525;SDS011;11429;50.842;4.386;2023-06-05T05:50:48;13.13;;;6.75;;
22525;SDS011;11429;50.842;4.386;2023-06-05T05:53:14;10.57;;;6.80;;
22525;SDS011;11429;50.842;4.386;2023-06-05T05:55:40;9.60;;;5.93;;
22525;SDS011;11429;50.842;4.386;2023-06-05T05:58:06;9.20;;;6.07;;
22525;SDS011;11429;50.842;4.386;2023-06-05T06:00:32;9.93;;;6.90;;
22525;SDS011;11429;50.842;4.386;2023-06-05T06:02:59;10.82;;;6.45;;
22525;SDS011;11429;50.842;4.386;2023-06-05T06:05:25;9.40;;;6.57;;
22525;SDS011;11429;50.842;4.386;2023-06-05T06:07:50;11.55;;;6.97;;
22525;SDS011;11429;50.842;4.386;2023-06-05T06:10:16;12.10;;;7.25;;
22525;SDS011;11429;50.842;4.386;2023-06-05T06:12:43;11.20;;;6.68;;
22525;SDS011;11429;50.842;4.386;2023-06-05T06:15:10;10.63;;;6.93;;
22525;SDS011;11429;50.842;4.386;2023-06-05T06:17:36;22.20;;;7.50;;
22525;SDS011;11429;50.842;4.386;2023-06-05T06:20:03;10.65;;;6.90;;
22525;SDS011;11429;50.842;4.386;2023-06-05T06:22:30;11.85;;;6.28;;
22525;SDS011;11429;50.842;4.386;2023-06-05T06:24:56;13.68;;;6.63;;
22525;SDS011;11429;50.842;4.386;2023-06-05T06:27:22;10.63;;;7.50;;
22525;SDS011;11429;50.842;4.386;2023-06-05T06:29:49;11.10;;;6.97;;
22525;SDS011;11429;50.842;4.386;2023-06-05T06:32:19;13.90;;;6.80;;
22525;SDS011;11429;50.842;4.386;2023-06-05T06:34:45;15.23;;;6.97;;
22525;SDS011;11429;50.842;4.386;2023-06-05T06:40:03;12.88;;;6.97;;
22525;SDS011;11429;50.842;4.386;2023-06-05T06:42:34;9.73;;;6.68;;
22525;SDS011;11429;50.842;4.386;2023-06-05T06:45:00;11.77;;;6.82;;
22525;SDS011;11429;50.842;4.386;2023-06-05T06:47:26;14.07;;;6.88;;
22525;SDS011;11429;50.842;4.386;2023-06-05T06:49:52;11.73;;;7.18;;
22525;SDS011;11429;50.842;4.386;2023-06-05T06:52:19;14.45;;;7.20;;
22525;SDS011;11429;50.842;4.386;2023-06-05T06:54:45;12.10;;;6.75;;
22525;SDS011;11429;50.842;4.386;2023-06-05T06:57:11;8.18;;;6.88;;
22525;SDS011;11429;50.842;4.386;2023-06-05T06:59:37;12.88;;;7.47;;
22525;SDS011;11429;50.842;4.386;2023-06-05T07:02:12;14.15;;;6.57;;
22525;SDS011;11429;50.842;4.386;2023-06-05T07:04:39;11.18;;;7.15;;
22525;SDS011;11429;50.842;4.386;2023-06-05T07:07:10;11.10;;;6.80;;
22525;SDS011;11429;50.842;4.386;2023-06-05T07:09:37;14.35;;;7.60;;
22525;SDS011;11429;50.842;4.386;2023-06-05T07:12:04;10.48;;;7.00;;
22525;SDS011;11429;50.842;4.386;2023-06-05T07:14:31;15.80;;;7.30;;
22525;SDS011;11429;50.842;4.386;2023-06-05T07:16:58;11.88;;;6.90;;
22525;SDS011;11429;50.842;4.386;2023-06-05T07:19:25;11.70;;;7.60;;
22525;SDS011;11429;50.842;4.386;2023-06-05T07:21:55;13.05;;;7.30;;
22525;SDS011;11429;50.842;4.386;2023-06-05T07:24:23;9.80;;;7.15;;
22525;SDS011;11429;50.842;4.386;2023-06-05T07:26:53;10.07;;;7.20;;
22525;SDS011;11429;50.842;4.386;2023-06-05T07:29:19;8.95;;;6.72;;
22525;SDS011;11429;50.842;4.386;2023-06-05T07:31:46;18.65;;;7.38;;
22525;SDS011;11429;50.842;4.386;2023-06-05T07:34:13;10.23;;;7.47;;
22525;SDS011;11429;50.842;4.386;2023-06-05T07:36:40;14.52;;;7.28;;
22525;SDS011;11429;50.842;4.386;2023-06-05T07:39:06;12.15;;;7.05;;
22525;SDS011;11429;50.842;4.386;2023-06-05T07:41:32;10.43;;;7.45;;
22525;SDS011;11429;50.842;4.386;2023-06-05T07:43:58;8.00;;;6.95;;
22525;SDS011;11429;50.842;4.386;2023-06-05T07:46:23;12.07;;;7.40;;
22525;SDS011;11429;50.842;4.386;2023-06-05T07:48:49;8.68;;;7.07;;
22525;SDS011;11429;50.842;4.386;2023-06-05T07:51:15;11.50;;;7.28;;
22525;SDS011;11429;50.842;4.386;2023-06-05T07:53:43;10.63;;;7.63;;
22525;SDS011;11429;50.842;4.386;2023-06-05T07:56:09;15.25;;;7.85;;
22525;SDS011;11429;50.842;4.386;2023-06-05T07:58:36;10.05;;;7.63;;
22525;SDS011;11429;50.842;4.386;2023-06-05T08:01:04;11.02;;;7.75;;
22525;SDS011;11429;50.842;4.386;2023-06-05T08:03:32;12.85;;;7.00;;
22525;SDS011;11429;50.842;4.386;2023-06-05T08:05:57;13.38;;;8.07;;
22525;SDS011;11429;50.842;4.386;2023-06-05T08:08:24;14.00;;;8.13;;
22525;SDS011;11429;50.842;4.386;2023-06-05T08:10:50;14.65;;;7.70;;
22525;SDS011;11429;50.842;4.386;2023-06-05T08:13:16;12.10;;;7.78;;
22525;SDS011;11429;50.842;4.386;2023-06-05T08:15:42;8.77;;;7.45;;
22525;SDS011;11429;50.842;4.386;2023-06-05T08:18:07;10.07;;;7.63;;
22525;SDS011;11429;50.842;4.386;2023-06-05T08:20:33;11.45;;;8.20;;
22525;SDS011;11429;50.842;4.386;2023-06-05T08:22:59;10.20;;;7.63;;
22525;SDS011;11429;50.842;4.386;2023-06-05T08:25:26;14.98;;;8.75;;
22525;SDS011;11429;50.842;4.386;2023-06-05T08:27:52;11.00;;;7.57;;
22525;SDS011;11429;50.842;4.386;2023-06-05T08:30:18;12.95;;;8.52;;
22525;SDS011;11429;50.842;4.386;2023-06-05T08:32:44;14.35;;;8.10;;
22525;SDS011;11429;50.842;4.386;2023-06-05T08:35:10;13.98;;;7.88;;
22525;SDS011;11429;50.842;4.386;2023-06-05T08:37:37;13.02;;;7.57;;
22525;SDS011;11429;50.842;4.386;2023-06-05T08:40:04;10.35;;;7.78;;
22525;SDS011;11429;50.842;4.386;2023-06-05T08:42:37;14.82;;;8.35;;
22525;SDS011;11429;50.842;4.386;2023-06-05T08:45:04;10.23;;;8.10;;
22525;SDS011;11429;50.842;4.386;2023-06-05T08:47:32;15.82;;;7.97;;
22525;SDS011;11429;50.842;4.386;2023-06-05T08:50:04;14.02;;;8.05;;
22525;SDS011;11429;50.842;4.386;2023-06-05T08:52:37;12.30;;;7.88;;
22525;SDS011;11429;50.842;4.386;2023-06-05T08:55:04;10.02;;;8.25;;
22525;SDS011;11429;50.842;4.386;2023-06-05T08:57:40;15.65;;;9.13;;
22525;SDS011;11429;50.842;4.386;2023-06-05T09:00:07;11.52;;;8.25;;
22525;SDS011;11429;50.842;4.386;2023-06-05T09:02:39;11.82;;;8.25;;
22525;SDS011;11429;50.842;4.386;2023-06-05T09:05:12;10.82;;;8.32;;
22525;SDS011;11429;50.842;4.386;2023-06-05T09:07:38;21.13;;;9.40;;
22525;SDS011;11429;50.842;4.386;2023-06-05T09:10:05;10.13;;;7.80;;
22525;SDS011;11429;50.842;4.386;2023-06-05T09:12:32;23.13;;;9.05;;
22525;SDS011;11429;50.842;4.386;2023-06-05T09:18:14;14.07;;;8.30;;
22525;SDS011;11429;50.842;4.386;2023-06-05T09:20:44;10.95;;;8.30;;
22525;SDS011;11429;50.842;4.386;2023-06-05T09:26:06;14.98;;;7.97;;
22525;SDS011;11429;50.842;4.386;2023-06-05T09:28:34;12.15;;;9.20;;
22525;SDS011;11429;50.842;4.386;2023-06-05T09:31:01;11.25;;;9.13;;
22525;SDS011;11429;50.842;4.386;2023-06-05T09:33:29;12.70;;;8.73;;
22525;SDS011;11429;50.842;4.386;2023-06-05T09:38:31;13.50;;;9.00;;
22525;SDS011;11429;50.842;4.386;2023-06-05T09:41:01;13.70;;;8.25;;
22525;SDS011;11429;50.842;4.386;2023-06-05T09:43:34;15.18;;;8.57;;
22525;SDS011;11429;50.842;4.386;2023-06-05T09:46:08;15.38;;;8.85;;
22525;SDS011;11429;50.842;4.386;2023-06-05T09:48:36;13.82;;;11.18;;
22525;SDS011;11429;50.842;4.386;2023-06-05T09:51:12;12.95;;;9.48;;
22525;SDS011;11429;50.842;4.386;2023-06-05T09:53:43;11.40;;;8.25;;
22525;SDS011;11429;50.842;4.386;2023-06-05T09:58:48;23.48;;;8.80;;
22525;SDS011;11429;50.842;4.386;2023-06-05T10:01:17;10.30;;;8.20;;
22525;SDS011;11429;50.842;4.386;2023-06-05T10:04:02;15.75;;;7.60;;
22525;SDS011;11429;50.842;4.386;2023-06-05T10:06:32;12.13;;;8.20;;
22525;SDS011;11429;50.842;4.386;2023-06-05T10:08:58;18.48;;;8.40;;
22525;SDS011;11429;50.842;4.386;2023-06-05T10:11:25;18.52;;;7.32;;
22525;SDS011;11429;50.842;4.386;2023-06-05T10:13:52;12.43;;;8.13;;
22525;SDS011;11429;50.842;4.386;2023-06-05T10:16:18;14.60;;;7.70;;
22525;SDS011;11429;50.842;4.386;2023-06-05T10:18:48;12.43;;;7.38;;
22525;SDS011;11429;50.842;4.386;2023-06-05T10:21:15;21.80;;;7.90;;
22525;SDS011;11429;50.842;4.386;2023-06-05T10:23:48;18.75;;;8.00;;
22525;SDS011;11429;50.842;4.386;2023-06-05T10:40:34;11.18;;;6.85;;
22525;SDS011;11429;50.842;4.386;2023-06-05T10:45:49;14.02;;;6.65;;
22525;SDS011;11429;50.842;4.386;2023-06-05T10:48:15;9.60;;;6.97;;
22525;SDS011;11429;50.842;4.386;2023-06-05T10:50:41;16.58;;;6.30;;
22525;SDS011;11429;50.842;4.386;2023-06-05T10:53:07;12.07;;;7.10;;
22525;SDS011;11429;50.842;4.386;2023-06-05T10:55:53;12.80;;;6.82;;
22525;SDS011;11429;50.842;4.386;2023-06-05T10:58:19;13.23;;;6.82;;
22525;SDS011;11429;50.842;4.386;2023-06-05T11:01:30;11.88;;;6.88;;
22525;SDS011;11429;50.842;4.386;2023-06-05T11:03:54;12.05;;;5.95;;
22525;SDS011;11429;50.842;4.386;2023-06-05T11:06:23;9.95;;;7.15;;
22525;SDS011;11429;50.842;4.386;2023-06-05T11:09:23;12.57;;;7.45;;
22525;SDS011;11429;50.842;4.386;2023-06-05T11:12:00;12.70;;;6.85;;
22525;SDS011;11429;50.842;4.386;2023-06-05T11:14:46;9.43;;;6.10;;
22525;SDS011;11429;50.842;4.386;2023-06-05T11:17:25;11.32;;;6.22;;
22525;SDS011;11429;50.842;4.386;2023-06-05T11:19:52;8.65;;;5.90;;
22525;SDS011;11429;50.842;4.386;2023-06-05T11:22:18;9.55;;;5.20;;
22525;SDS011;11429;50.842;4.386;2023-06-05T11:24:44;8.65;;;6.15;;
22525;SDS011;11429;50.842;4.386;2023-06-05T11:27:40;9.77;;;7.07;;
22525;SDS011;11429;50.842;4.386;2023-06-05T11:30:11;14.45;;;6.72;;
22525;SDS011;11429;50.842;4.386;2023-06-05T11:32:37;13.38;;;6.18;;
22525;SDS011;11429;50.842;4.386;2023-06-05T11:35:04;7.18;;;5.07;;
22525;SDS011;11429;50.842;4.386;2023-06-05T11:37:30;7.07;;;5.93;;
22525;SDS011;11429;50.842;4.386;2023-06-05T11:39:59;10.60;;;6.80;;
22525;SDS011;11429;50.842;4.386;2023-06-05T11:42:38;13.25;;;6.15;;
22525;SDS011;11429;50.842;4.386;2023-06-05T11:45:11;11.20;;;6.38;;
22525;SDS011;11429;50.842;4.386;2023-06-05T11:47:38;14.47;;;6.10;;
22525;SDS011;11429;50.842;4.386;2023-06-05T11:50:07;14.68;;;5.95;;
22525;SDS011;11429;50.842;4.386;2023-06-05T11:52:35;7.10;;;5.32;;
22525;SDS011;11429;50.842;4.386;2023-06-05T11:58:08;10.00;;;5.15;;
22525;SDS011;11429;50.842;4.386;2023-06-05T12:00:34;6.47;;;4.68;;
22525;SDS011;11429;50.842;4.386;2023-06-05T12:03:00;15.68;;;5.05;;
22525;SDS011;11429;50.842;4.386;2023-06-05T12:05:26;11.48;;;4.50;;
22525;SDS011;11429;50.842;4.386;2023-06-05T12:07:52;9.23;;;4.40;;
22525;SDS011;11429;50.842;4.386;2023-06-05T12:10:18;12.45;;;4.72;;
22525;SDS011;11429;50.842;4.386;2023-06-05T12:12:51;9.00;;;5.05;;
22525;SDS011;11429;50.842;4.386;2023-06-05T12:15:18;13.80;;;5.65;;
22525;SDS011;11429;50.842;4.386;2023-06-05T12:17:55;7.80;;;4.80;;
22525;SDS011;11429;50.842;4.386;2023-06-05T12:20:21;9.77;;;4.97;;
22525;SDS011;11429;50.842;4.386;2023-06-05T12:22:48;17.08;;;4.80;;
22525;SDS011;11429;50.842;4.386;2023-06-05T12:25:23;10.77;;;3.88;;
22525;SDS011;11429;50.842;4.386;2023-06-05T12:30:14;10.65;;;3.63;;
22525;SDS011;11429;50.842;4.386;2023-06-05T12:32:41;6.60;;;4.70;;
22525;SDS011;11429;50.842;4.386;2023-06-05T12:35:21;6.68;;;4.05;;
22525;SDS011;11429;50.842;4.386;2023-06-05T12:37:48;15.70;;;4.20;;
22525;SDS011;11429;50.842;4.386;2023-06-05T12:40:15;8.80;;;3.90;;
22525;SDS011;11429;50.842;4.386;2023-06-05T12:42:45;8.57;;;3.75;;
22525;SDS011;11429;50.842;4.386;2023-06-05T12:45:12;7.13;;;3.80;;
22525;SDS011;11429;50.842;4.386;2023-06-05T12:47:38;6.07;;;3.22;;
22525;SDS011;11429;50.842;4.386;2023-06-05T12:50:08;9.80;;;2.95;;
22525;SDS011;11429;50.842;4.386;2023-06-05T12:52:37;6.15;;;2.92;;
22525;SDS011;11429;50.842;4.386;2023-06-05T12:55:04;4.82;;;2.95;;
22525;SDS011;11429;50.842;4.386;2023-06-05T12:57:30;7.63;;;2.78;;
22525;SDS011;11429;50.842;4.386;2023-06-05T12:59:57;8.85;;;3.22;;
22525;SDS011;11429;50.842;4.386;2023-06-05T13:02:23;8.02;;;4.22;;
22525;SDS011;11429;50.842;4.386;2023-06-05T13:04:50;10.93;;;3.03;;
22525;SDS011;11429;50.842;4.386;2023-06-05T13:07:16;6.60;;;3.45;;
22525;SDS011;11429;50.842;4.386;2023-06-05T13:09:42;9.02;;;3.15;;
22525;SDS011;11429;50.842;4.386;2023-06-05T13:12:08;10.35;;;3.88;;
22525;SDS011;11429;50.842;4.386;2023-06-05T13:14:34;9.45;;;4.25;;
22525;SDS011;11429;50.842;4.386;2023-06-05T13:17:00;9.90;;;3.78;;
22525;SDS011;11429;50.842;4.386;2023-06-05T13:19:26;8.20;;;3.65;;
22525;SDS011;11429;50.842;4.386;2023-06-05T13:21:51;9.65;;;3.67;;
22525;SDS011;11429;50.842;4.386;2023-06-05T13:24:17;11.32;;;4.10;;
22525;SDS011;11429;50.842;4.386;2023-06-05T13:26:43;13.85;;;3.80;;
22525;SDS011;11429;50.842;4.386;2023-06-05T13:29:10;7.75;;;3.25;;
22525;SDS011;11429;50.842;4.386;2023-06-05T13:31:36;10.50;;;4.43;;
22525;SDS011;11429;50.842;4.386;2023-06-05T13:34:02;9.70;;;4.18;;
22525;SDS011;11429;50.842;4.386;2023-06-05T13:36:28;7.97;;;4.55;;
22525;SDS011;11429;50.842;4.386;2023-06-05T13:38:54;6.28;;;3.30;;
22525;SDS011;11429;50.842;4.386;2023-06-05T13:41:20;6.13;;;2.50;;
22525;SDS011;11429;50.842;4.386;2023-06-05T13:43:46;8.18;;;3.30;;
22525;SDS011;11429;50.842;4.386;2023-06-05T13:46:12;4.38;;;2.85;;
22525;SDS011;11429;50.842;4.386;2023-06-05T13:48:38;11.73;;;3.38;;
22525;SDS011;11429;50.842;4.386;2023-06-05T13:51:04;8.32;;;3.55;;
22525;SDS011;11429;50.842;4.386;2023-06-05T13:53:30;5.68;;;3.28;;
22525;SDS011;11429;50.842;4.386;2023-06-05T13:56:03;7.43;;;3.88;;
22525;SDS011;11429;50.842;4.386;2023-06-05T14:55:48;6.57;;;3.78;;
22525;SDS011;11429;50.842;4.386;2023-06-05T14:58:13;8.90;;;3.83;;
22525;SDS011;11429;50.842;4.386;2023-06-05T15:00:40;7.50;;;4.22;;
22525;SDS011;11429;50.842;4.386;2023-06-05T15:03:06;9.52;;;3.70;;
22525;SDS011;11429;50.842;4.386;2023-06-05T15:05:32;10.40;;;4.15;;
22525;SDS011;11429;50.842;4.386;2023-06-05T15:07:57;9.88;;;4.10;;
22525;SDS011;11429;50.842;4.386;2023-06-05T15:10:24;10.93;;;3.97;;
22525;SDS011;11429;50.842;4.386;2023-06-05T15:12:50;20.15;;;4.28;;
22525;SDS011;11429;50.842;4.386;2023-06-05T15:15:21;10.00;;;4.60;;
22525;SDS011;11429;50.842;4.386;2023-06-05T15:17:47;10.05;;;4.00;;
22525;SDS011;11429;50.842;4.386;2023-06-05T15:20:13;10.02;;;4.40;;
22525;SDS011;11429;50.842;4.386;2023-06-05T15:22:39;12.23;;;4.30;;
22525;SDS011;11429;50.842;4.386;2023-06-05T15:25:05;9.65;;;3.92;;
22525;SDS011;11429;50.842;4.386;2023-06-05T15:27:31;10.15;;;3.95;;
22525;SDS011;11429;50.842;4.386;2023-06-05T15:29:59;7.35;;;3.78;;
22525;SDS011;11429;50.842;4.386;2023-06-05T15:32:24;11.00;;;3.58;;
22525;SDS011;11429;50.842;4.386;2023-06-05T15:34:50;8.80;;;4.05;;
22525;SDS011;11429;50.842;4.386;2023-06-05T15:37:16;6.30;;;3.53;;
22525;SDS011;11429;50.842;4.386;2023-06-05T15:39:42;9.90;;;3.88;;
22525;SDS011;11429;50.842;4.386;2023-06-05T15:42:08;9.77;;;4.15;;
22525;SDS011;11429;50.842;4.386;2023-06-05T15:44:37;6.60;;;3.83;;
22525;SDS011;11429;50.842;4.386;2023-06-05T15:47:05;9.27;;;4.13;;
22525;SDS011;11429;50.842;4.386;2023-06-05T15:49:31;8.23;;;3.65;;
22525;SDS011;11429;50.842;4.386;2023-06-05T15:51:57;10.10;;;4.40;;
22525;SDS011;11429;50.842;4.386;2023-06-05T15:54:22;6.75;;;4.38;;
22525;SDS011;11429;50.842;4.386;2023-06-05T15:57:09;10.05;;;4.20;;
22525;SDS011;11429;50.842;4.386;2023-06-05T15:59:34;6.80;;;4.07;;
22525;SDS011;11429;50.842;4.386;2023-06-05T16:02:01;6.47;;;3.63;;
22525;SDS011;11429;50.842;4.386;2023-06-05T16:04:27;11.35;;;4.38;;
22525;SDS011;11429;50.842;4.386;2023-06-05T16:06:53;16.33;;;4.65;;
22525;SDS011;11429;50.842;4.386;2023-06-05T16:09:18;6.55;;;4.28;;
22525;SDS011;11429;50.842;4.386;2023-06-05T17:29:20;8.48;;;5.45;;
22525;SDS011;11429;50.842;4.386;2023-06-05T17:31:47;15.77;;;5.80;;
22525;SDS011;11429;50.842;4.386;2023-06-05T17:34:19;11.25;;;5.78;;
22525;SDS011;11429;50.842;4.386;2023-06-05T17:36:47;16.08;;;5.68;;
22525;SDS011;11429;50.842;4.386;2023-06-05T17:39:13;8.02;;;5.13;;
22525;SDS011;11429;50.842;4.386;2023-06-05T17:41:39;13.20;;;5.82;;
22525;SDS011;11429;50.842;4.386;2023-06-05T17:44:05;10.38;;;5.32;;
22525;SDS011;11429;50.842;4.386;2023-06-05T17:46:32;10.52;;;5.38;;
22525;SDS011;11429;50.842;4.386;2023-06-05T17:48:57;10.05;;;5.40;;